Estación Meteorológica Peña el Pijo (Robertgarden) [ 11/20/17 01:25:26 CET ]

Fecha Hora Presion(HPa) Temp (°C) Humedad % Rocio (°C) Viento ( m/s) Direccion Lluvia 1Hora(mm) Lluvia 24H(mm) LLuvia Total(mm)
2017-Nov-09 01:01:32 1011.400 3.9 71 -0.9         1468.01
2017-Nov-09 02:06:10 1011.500 2.6 72 -1.9         1468.01
2017-Nov-09 03:01:37 1011.600 1.3 74 -2.9         1468.01
2017-Nov-09 04:01:38 1011.800 0.1 76 -3.6         1468.01
2017-Nov-09 05:01:41 1011.500 -0.9 77 -4.4         1468.01
2017-Nov-09 06:01:48 1011.200 -1.5 79 -4.7         1468.01
2017-Nov-09 07:01:39 1011.500 -1.6 79 -4.8         1468.01
2017-Nov-09 08:01:47 1012.200 -1.6 80 -4.6         1468.01
2017-Nov-09 09:01:41 1012.300 0.9 82 -1.9         1468.01
2017-Nov-09 10:01:41 1012.900 7.6 61 0.6         1468.01
2017-Nov-09 11:02:00 1013.000 10.3 45 -1.2 1.4 SSW     1468.01
2017-Nov-09 12:01:43 1012.900 11.2 41 -1.6         1468.01
2017-Nov-09 13:01:34 1012.100 10.9 41 -1.9         1468.01
2017-Nov-09 14:01:31 1011.500 13.0 36 -1.9         1468.01
2017-Nov-09 15:01:47 1011.600 12.8 36 -2.0 0.2 SSW     1468.01
2017-Nov-09 16:02:08 1011.500 12.3 36 -2.5         1468.01
2017-Nov-09 17:01:47 1011.600 10.2 41 -2.5         1468.01
2017-Nov-09 18:01:34 1011.800 7.6 47 -3.1         1468.01
2017-Nov-09 19:01:44 1012.800 5.9 51 -3.5         1468.01
2017-Nov-09 20:01:48 1013.200 2.9 57 -4.8         1468.01
2017-Nov-09 21:01:44 1013.800 1.3 62 -5.2         1468.01
2017-Nov-09 22:01:38 1014.200 0.6 68 -4.7         1468.01
2017-Nov-09 23:01:51 1014.200 0.3 71 -4.3         1468.01

Temperatura Máxima:13°    Temperatura Mínima:-1°
Presión Máxima:1014.200 Hpa    Presión Mínima:1011.200 Hpa


Volver